sensor_id;sensor_type;location;lat;lon;timestamp;P1;durP1;ratioP1;P2;durP2;ratioP2
11604;SDS011;5858;43.076;25.626;2023-06-14T00:01:49;7.45;;;6.65;;
11604;SDS011;5858;43.076;25.626;2023-06-14T00:04:20;7.40;;;6.60;;
11604;SDS011;5858;43.076;25.626;2023-06-14T00:06:50;7.68;;;6.63;;
11604;SDS011;5858;43.076;25.626;2023-06-14T00:09:18;6.90;;;6.28;;
11604;SDS011;5858;43.076;25.626;2023-06-14T00:11:50;9.75;;;6.82;;
11604;SDS011;5858;43.076;25.626;2023-06-14T00:14:18;8.27;;;6.95;;
11604;SDS011;5858;43.076;25.626;2023-06-14T00:16:47;8.68;;;6.95;;
11604;SDS011;5858;43.076;25.626;2023-06-14T00:19:15;8.27;;;6.72;;
11604;SDS011;5858;43.076;25.626;2023-06-14T00:21:42;7.90;;;7.13;;
11604;SDS011;5858;43.076;25.626;2023-06-14T00:24:09;7.95;;;7.15;;
11604;SDS011;5858;43.076;25.626;2023-06-14T00:26:38;7.93;;;6.95;;
11604;SDS011;5858;43.076;25.626;2023-06-14T00:29:05;8.38;;;7.07;;
11604;SDS011;5858;43.076;25.626;2023-06-14T00:31:32;8.27;;;7.07;;
11604;SDS011;5858;43.076;25.626;2023-06-14T00:34:01;8.98;;;7.18;;
11604;SDS011;5858;43.076;25.626;2023-06-14T00:36:28;9.63;;;6.47;;
11604;SDS011;5858;43.076;25.626;2023-06-14T00:38:56;9.45;;;7.40;;
11604;SDS011;5858;43.076;25.626;2023-06-14T00:41:24;8.25;;;6.85;;
11604;SDS011;5858;43.076;25.626;2023-06-14T00:43:52;8.00;;;7.07;;
11604;SDS011;5858;43.076;25.626;2023-06-14T00:46:21;7.88;;;7.07;;
11604;SDS011;5858;43.076;25.626;2023-06-14T00:48:49;10.45;;;7.43;;
11604;SDS011;5858;43.076;25.626;2023-06-14T00:51:19;9.93;;;7.13;;
11604;SDS011;5858;43.076;25.626;2023-06-14T00:53:48;10.43;;;7.60;;
11604;SDS011;5858;43.076;25.626;2023-06-14T00:56:15;10.10;;;7.63;;
11604;SDS011;5858;43.076;25.626;2023-06-14T00:58:45;9.10;;;7.82;;
11604;SDS011;5858;43.076;25.626;2023-06-14T01:01:22;10.63;;;8.27;;
11604;SDS011;5858;43.076;25.626;2023-06-14T01:03:50;8.30;;;7.45;;
11604;SDS011;5858;43.076;25.626;2023-06-14T01:06:20;10.02;;;8.05;;
11604;SDS011;5858;43.076;25.626;2023-06-14T01:08:57;8.90;;;8.00;;
11604;SDS011;5858;43.076;25.626;2023-06-14T01:11:36;10.63;;;8.50;;
11604;SDS011;5858;43.076;25.626;2023-06-14T01:14:10;23.02;;;9.00;;
11604;SDS011;5858;43.076;25.626;2023-06-14T01:16:39;11.70;;;9.55;;
11604;SDS011;5858;43.076;25.626;2023-06-14T01:19:07;12.20;;;9.75;;
11604;SDS011;5858;43.076;25.626;2023-06-14T01:21:43;10.48;;;9.38;;
11604;SDS011;5858;43.076;25.626;2023-06-14T01:24:12;15.50;;;9.63;;
11604;SDS011;5858;43.076;25.626;2023-06-14T01:26:48;11.10;;;9.85;;
11604;SDS011;5858;43.076;25.626;2023-06-14T01:29:21;11.20;;;9.30;;
11604;SDS011;5858;43.076;25.626;2023-06-14T01:31:50;11.23;;;10.00;;
11604;SDS011;5858;43.076;25.626;2023-06-14T01:34:17;12.38;;;11.13;;
11604;SDS011;5858;43.076;25.626;2023-06-14T01:36:44;12.60;;;9.30;;
11604;SDS011;5858;43.076;25.626;2023-06-14T01:39:14;11.40;;;10.30;;
11604;SDS011;5858;43.076;25.626;2023-06-14T01:41:41;11.38;;;9.52;;
11604;SDS011;5858;43.076;25.626;2023-06-14T01:44:11;11.13;;;9.88;;
11604;SDS011;5858;43.076;25.626;2023-06-14T01:46:40;9.35;;;8.02;;
11604;SDS011;5858;43.076;25.626;2023-06-14T01:49:09;8.32;;;7.53;;
11604;SDS011;5858;43.076;25.626;2023-06-14T01:51:36;9.55;;;8.63;;
11604;SDS011;5858;43.076;25.626;2023-06-14T01:54:03;8.95;;;7.80;;
11604;SDS011;5858;43.076;25.626;2023-06-14T01:56:32;8.98;;;8.07;;
11604;SDS011;5858;43.076;25.626;2023-06-14T01:58:59;8.48;;;7.50;;
11604;SDS011;5858;43.076;25.626;2023-06-14T02:01:27;11.57;;;8.15;;
11604;SDS011;5858;43.076;25.626;2023-06-14T02:03:54;9.57;;;8.18;;
11604;SDS011;5858;43.076;25.626;2023-06-14T02:06:21;8.93;;;7.90;;
11604;SDS011;5858;43.076;25.626;2023-06-14T02:08:48;8.50;;;7.70;;
11604;SDS011;5858;43.076;25.626;2023-06-14T02:11:15;13.13;;;9.38;;
11604;SDS011;5858;43.076;25.626;2023-06-14T02:13:44;10.90;;;9.80;;
11604;SDS011;5858;43.076;25.626;2023-06-14T02:16:11;12.98;;;9.90;;
11604;SDS011;5858;43.076;25.626;2023-06-14T02:18:39;11.10;;;9.40;;
11604;SDS011;5858;43.076;25.626;2023-06-14T02:21:07;10.00;;;8.75;;
11604;SDS011;5858;43.076;25.626;2023-06-14T02:23:34;9.73;;;8.73;;
11604;SDS011;5858;43.076;25.626;2023-06-14T02:26:01;10.88;;;9.40;;
11604;SDS011;5858;43.076;25.626;2023-06-14T02:28:29;13.63;;;9.77;;
11604;SDS011;5858;43.076;25.626;2023-06-14T02:30:57;10.00;;;9.02;;
11604;SDS011;5858;43.076;25.626;2023-06-14T02:33:25;11.23;;;8.95;;
11604;SDS011;5858;43.076;25.626;2023-06-14T02:35:53;10.38;;;8.52;;
11604;SDS011;5858;43.076;25.626;2023-06-14T02:38:21;9.40;;;8.40;;
11604;SDS011;5858;43.076;25.626;2023-06-14T02:40:48;9.88;;;8.95;;
11604;SDS011;5858;43.076;25.626;2023-06-14T02:43:16;10.48;;;9.38;;
11604;SDS011;5858;43.076;25.626;2023-06-14T02:45:43;12.23;;;9.10;;
11604;SDS011;5858;43.076;25.626;2023-06-14T02:48:12;9.93;;;8.85;;
11604;SDS011;5858;43.076;25.626;2023-06-14T02:50:39;11.45;;;8.45;;
11604;SDS011;5858;43.076;25.626;2023-06-14T02:53:06;13.68;;;9.13;;
11604;SDS011;5858;43.076;25.626;2023-06-14T02:55:33;11.45;;;8.50;;
11604;SDS011;5858;43.076;25.626;2023-06-14T02:58:04;12.10;;;8.73;;
11604;SDS011;5858;43.076;25.626;2023-06-14T03:00:31;9.25;;;8.35;;
11604;SDS011;5858;43.076;25.626;2023-06-14T03:03:00;13.77;;;9.20;;
11604;SDS011;5858;43.076;25.626;2023-06-14T03:05:29;10.93;;;8.73;;
11604;SDS011;5858;43.076;25.626;2023-06-14T03:07:56;13.23;;;8.52;;
11604;SDS011;5858;43.076;25.626;2023-06-14T03:10:23;12.13;;;7.90;;
11604;SDS011;5858;43.076;25.626;2023-06-14T03:12:54;10.02;;;8.27;;
11604;SDS011;5858;43.076;25.626;2023-06-14T03:15:21;11.20;;;8.75;;
11604;SDS011;5858;43.076;25.626;2023-06-14T03:17:49;16.92;;;9.50;;
11604;SDS011;5858;43.076;25.626;2023-06-14T03:20:18;11.57;;;8.65;;
11604;SDS011;5858;43.076;25.626;2023-06-14T03:22:47;10.13;;;9.13;;
11604;SDS011;5858;43.076;25.626;2023-06-14T03:25:14;11.63;;;8.55;;
11604;SDS011;5858;43.076;25.626;2023-06-14T03:27:41;10.35;;;8.75;;
11604;SDS011;5858;43.076;25.626;2023-06-14T03:30:08;9.38;;;8.48;;
11604;SDS011;5858;43.076;25.626;2023-06-14T03:32:36;11.63;;;9.02;;
11604;SDS011;5858;43.076;25.626;2023-06-14T03:35:03;12.32;;;8.73;;
11604;SDS011;5858;43.076;25.626;2023-06-14T03:37:31;9.80;;;8.80;;
11604;SDS011;5858;43.076;25.626;2023-06-14T03:40:00;9.98;;;9.05;;
11604;SDS011;5858;43.076;25.626;2023-06-14T03:42:31;9.57;;;8.45;;
11604;SDS011;5858;43.076;25.626;2023-06-14T03:44:58;9.48;;;8.07;;
11604;SDS011;5858;43.076;25.626;2023-06-14T03:47:25;12.10;;;8.32;;
11604;SDS011;5858;43.076;25.626;2023-06-14T03:49:52;9.15;;;8.20;;
11604;SDS011;5858;43.076;25.626;2023-06-14T03:52:19;11.73;;;8.45;;
11604;SDS011;5858;43.076;25.626;2023-06-14T03:54:47;15.40;;;8.60;;
11604;SDS011;5858;43.076;25.626;2023-06-14T03:57:15;8.95;;;8.15;;
11604;SDS011;5858;43.076;25.626;2023-06-14T03:59:43;8.93;;;8.07;;
11604;SDS011;5858;43.076;25.626;2023-06-14T04:02:10;9.98;;;8.15;;
11604;SDS011;5858;43.076;25.626;2023-06-14T04:04:40;11.15;;;8.98;;
11604;SDS011;5858;43.076;25.626;2023-06-14T04:07:09;13.98;;;10.15;;
11604;SDS011;5858;43.076;25.626;2023-06-14T04:09:36;14.57;;;10.68;;
11604;SDS011;5858;43.076;25.626;2023-06-14T04:12:06;12.20;;;11.00;;
11604;SDS011;5858;43.076;25.626;2023-06-14T04:14:36;12.95;;;10.23;;
11604;SDS011;5858;43.076;25.626;2023-06-14T04:17:04;13.82;;;10.02;;
11604;SDS011;5858;43.076;25.626;2023-06-14T04:19:31;13.75;;;10.77;;
11604;SDS011;5858;43.076;25.626;2023-06-14T04:21:58;15.40;;;11.43;;
11604;SDS011;5858;43.076;25.626;2023-06-14T04:24:26;13.07;;;11.23;;
11604;SDS011;5858;43.076;25.626;2023-06-14T04:26:57;13.15;;;10.90;;
11604;SDS011;5858;43.076;25.626;2023-06-14T04:29:26;12.10;;;10.90;;
11604;SDS011;5858;43.076;25.626;2023-06-14T04:31:56;17.17;;;12.10;;
11604;SDS011;5858;43.076;25.626;2023-06-14T04:34:26;13.60;;;12.20;;
11604;SDS011;5858;43.076;25.626;2023-06-14T04:36:57;16.67;;;12.38;;
11604;SDS011;5858;43.076;25.626;2023-06-14T04:39:26;17.00;;;12.07;;
11604;SDS011;5858;43.076;25.626;2023-06-14T04:41:56;14.55;;;11.88;;
11604;SDS011;5858;43.076;25.626;2023-06-14T04:44:25;15.35;;;12.07;;
11604;SDS011;5858;43.076;25.626;2023-06-14T04:47:01;13.93;;;12.50;;
11604;SDS011;5858;43.076;25.626;2023-06-14T04:49:33;15.10;;;12.57;;
11604;SDS011;5858;43.076;25.626;2023-06-14T04:52:00;16.13;;;12.77;;
11604;SDS011;5858;43.076;25.626;2023-06-14T04:54:31;15.43;;;13.40;;
11604;SDS011;5858;43.076;25.626;2023-06-14T05:07:37;14.70;;;10.70;;
11604;SDS011;5858;43.076;25.626;2023-06-14T05:10:53;12.32;;;10.80;;
11604;SDS011;5858;43.076;25.626;2023-06-14T05:14:32;16.25;;;11.70;;
11604;SDS011;5858;43.076;25.626;2023-06-14T05:18:57;14.95;;;11.60;;
11604;SDS011;5858;43.076;25.626;2023-06-14T05:23:44;11.70;;;10.40;;
11604;SDS011;5858;43.076;25.626;2023-06-14T05:26:27;12.35;;;11.15;;
11604;SDS011;5858;43.076;25.626;2023-06-14T05:29:06;13.60;;;11.15;;
11604;SDS011;5858;43.076;25.626;2023-06-14T05:31:36;13.32;;;11.90;;
11604;SDS011;5858;43.076;25.626;2023-06-14T05:34:15;12.25;;;10.98;;
11604;SDS011;5858;43.076;25.626;2023-06-14T05:37:33;14.30;;;10.70;;
11604;SDS011;5858;43.076;25.626;2023-06-14T05:40:23;14.70;;;11.63;;
11604;SDS011;5858;43.076;25.626;2023-06-14T05:43:17;15.30;;;11.43;;
11604;SDS011;5858;43.076;25.626;2023-06-14T05:45:58;13.35;;;11.48;;
11604;SDS011;5858;43.076;25.626;2023-06-14T05:51:42;14.65;;;13.05;;
11604;SDS011;5858;43.076;25.626;2023-06-14T06:04:06;14.98;;;11.77;;
11604;SDS011;5858;43.076;25.626;2023-06-14T06:06:49;16.02;;;12.00;;
11604;SDS011;5858;43.076;25.626;2023-06-14T06:09:38;15.23;;;10.80;;
11604;SDS011;5858;43.076;25.626;2023-06-14T06:28:23;13.13;;;8.23;;
11604;SDS011;5858;43.076;25.626;2023-06-14T06:34:45;10.75;;;9.43;;
11604;SDS011;5858;43.076;25.626;2023-06-14T06:50:18;21.30;;;18.92;;
11604;SDS011;5858;43.076;25.626;2023-06-14T06:52:55;13.00;;;11.05;;
11604;SDS011;5858;43.076;25.626;2023-06-14T06:55:40;13.95;;;12.15;;
11604;SDS011;5858;43.076;25.626;2023-06-14T06:58:21;13.82;;;10.38;;
11604;SDS011;5858;43.076;25.626;2023-06-14T07:01:08;11.80;;;9.68;;
11604;SDS011;5858;43.076;25.626;2023-06-14T07:07:19;11.93;;;9.90;;
11604;SDS011;5858;43.076;25.626;2023-06-14T07:13:24;10.13;;;9.13;;
11604;SDS011;5858;43.076;25.626;2023-06-14T07:30:00;14.50;;;12.77;;
11604;SDS011;5858;43.076;25.626;2023-06-14T07:32:39;12.07;;;10.85;;
11604;SDS011;5858;43.076;25.626;2023-06-14T07:38:07;17.65;;;12.77;;
11604;SDS011;5858;43.076;25.626;2023-06-14T07:41:13;14.93;;;13.52;;
11604;SDS011;5858;43.076;25.626;2023-06-14T07:46:38;15.40;;;12.50;;
11604;SDS011;5858;43.076;25.626;2023-06-14T07:49:08;13.65;;;12.32;;
11604;SDS011;5858;43.076;25.626;2023-06-14T07:51:58;14.77;;;11.85;;
11604;SDS011;5858;43.076;25.626;2023-06-14T07:54:48;12.57;;;11.27;;
11604;SDS011;5858;43.076;25.626;2023-06-14T07:57:17;13.77;;;11.70;;
11604;SDS011;5858;43.076;25.626;2023-06-14T08:03:27;13.48;;;11.05;;
11604;SDS011;5858;43.076;25.626;2023-06-14T08:29:34;15.05;;;8.98;;
11604;SDS011;5858;43.076;25.626;2023-06-14T08:35:45;9.75;;;7.57;;
11604;SDS011;5858;43.076;25.626;2023-06-14T08:38:37;30.40;;;8.95;;
11604;SDS011;5858;43.076;25.626;2023-06-14T09:22:08;18.20;;;6.55;;
11604;SDS011;5858;43.076;25.626;2023-06-14T09:24:44;7.15;;;6.55;;
11604;SDS011;5858;43.076;25.626;2023-06-14T09:27:17;10.05;;;6.05;;
11604;SDS011;5858;43.076;25.626;2023-06-14T09:29:59;6.47;;;5.88;;
11604;SDS011;5858;43.076;25.626;2023-06-14T09:32:36;9.50;;;5.30;;
11604;SDS011;5858;43.076;25.626;2023-06-14T09:41:58;5.18;;;4.68;;
11604;SDS011;5858;43.076;25.626;2023-06-14T09:50:42;4.85;;;4.45;;
11604;SDS011;5858;43.076;25.626;2023-06-14T09:53:29;5.97;;;4.70;;
11604;SDS011;5858;43.076;25.626;2023-06-14T09:56:10;4.57;;;4.20;;
11604;SDS011;5858;43.076;25.626;2023-06-14T09:58:57;5.45;;;4.95;;
11604;SDS011;5858;43.076;25.626;2023-06-14T10:01:54;5.43;;;4.93;;
11604;SDS011;5858;43.076;25.626;2023-06-14T10:05:07;6.03;;;4.85;;
11604;SDS011;5858;43.076;25.626;2023-06-14T10:10:50;5.00;;;4.55;;
11604;SDS011;5858;43.076;25.626;2023-06-14T11:26:48;5.95;;;3.47;;
11604;SDS011;5858;43.076;25.626;2023-06-14T11:29:16;5.22;;;3.03;;
11604;SDS011;5858;43.076;25.626;2023-06-14T11:38:57;4.53;;;3.70;;
11604;SDS011;5858;43.076;25.626;2023-06-14T11:51:56;5.00;;;3.90;;
11604;SDS011;5858;43.076;25.626;2023-06-14T12:18:34;4.28;;;3.03;;
11604;SDS011;5858;43.076;25.626;2023-06-14T12:21:08;6.95;;;3.22;;
11604;SDS011;5858;43.076;25.626;2023-06-14T12:23:55;3.28;;;2.97;;
11604;SDS011;5858;43.076;25.626;2023-06-14T12:42:03;3.83;;;2.88;;
11604;SDS011;5858;43.076;25.626;2023-06-14T14:15:12;3.42;;;2.97;;
11604;SDS011;5858;43.076;25.626;2023-06-14T14:48:16;3.13;;;2.80;;
11604;SDS011;5858;43.076;25.626;2023-06-14T14:50:55;3.25;;;2.85;;
11604;SDS011;5858;43.076;25.626;2023-06-14T14:56:57;3.55;;;2.50;;
11604;SDS011;5858;43.076;25.626;2023-06-14T15:03:09;3.72;;;2.80;;
11604;SDS011;5858;43.076;25.626;2023-06-14T15:47:33;2.45;;;2.25;;
11604;SDS011;5858;43.076;25.626;2023-06-14T15:59:53;4.78;;;3.08;;
11604;SDS011;5858;43.076;25.626;2023-06-14T16:36:34;5.57;;;3.30;;
11604;SDS011;5858;43.076;25.626;2023-06-14T16:39:31;2.90;;;2.65;;
11604;SDS011;5858;43.076;25.626;2023-06-14T16:42:16;4.90;;;3.65;;
11604;SDS011;5858;43.076;25.626;2023-06-14T16:44:54;7.65;;;4.32;;
11604;SDS011;5858;43.076;25.626;2023-06-14T17:14:29;4.80;;;3.20;;
11604;SDS011;5858;43.076;25.626;2023-06-14T17:20:49;7.68;;;4.00;;
11604;SDS011;5858;43.076;25.626;2023-06-14T17:24:07;6.20;;;3.60;;
11604;SDS011;5858;43.076;25.626;2023-06-14T17:27:12;4.60;;;3.47;;
11604;SDS011;5858;43.076;25.626;2023-06-14T17:47:11;5.18;;;3.97;;
11604;SDS011;5858;43.076;25.626;2023-06-14T17:49:53;5.05;;;4.00;;
11604;SDS011;5858;43.076;25.626;2023-06-14T18:21:37;4.22;;;3.75;;
11604;SDS011;5858;43.076;25.626;2023-06-14T18:24:06;6.78;;;4.93;;
11604;SDS011;5858;43.076;25.626;2023-06-14T18:26:38;5.82;;;4.47;;
11604;SDS011;5858;43.076;25.626;2023-06-14T18:29:06;5.38;;;3.67;;
11604;SDS011;5858;43.076;25.626;2023-06-14T18:31:35;4.68;;;3.70;;
11604;SDS011;5858;43.076;25.626;2023-06-14T18:34:26;3.72;;;3.42;;
11604;SDS011;5858;43.076;25.626;2023-06-14T18:37:01;3.85;;;3.45;;
11604;SDS011;5858;43.076;25.626;2023-06-14T18:39:35;4.55;;;3.47;;
11604;SDS011;5858;43.076;25.626;2023-06-14T18:42:05;4.25;;;3.75;;
11604;SDS011;5858;43.076;25.626;2023-06-14T18:44:43;5.15;;;3.70;;
11604;SDS011;5858;43.076;25.626;2023-06-14T18:47:23;4.10;;;3.42;;
11604;SDS011;5858;43.076;25.626;2023-06-14T18:49:53;5.32;;;3.67;;
11604;SDS011;5858;43.076;25.626;2023-06-14T18:52:27;5.40;;;4.50;;
11604;SDS011;5858;43.076;25.626;2023-06-14T18:55:19;4.47;;;4.05;;
11604;SDS011;5858;43.076;25.626;2023-06-14T18:57:49;5.97;;;3.97;;
11604;SDS011;5858;43.076;25.626;2023-06-14T19:00:21;5.25;;;4.53;;
11604;SDS011;5858;43.076;25.626;2023-06-14T19:03:04;4.70;;;3.53;;
11604;SDS011;5858;43.076;25.626;2023-06-14T19:12:21;6.35;;;3.60;;
11604;SDS011;5858;43.076;25.626;2023-06-14T19:12:44;4.60;;;3.40;;
11604;SDS011;5858;43.076;25.626;2023-06-14T19:15:49;6.32;;;3.50;;
11604;SDS011;5858;43.076;25.626;2023-06-14T19:18:46;4.95;;;3.92;;
11604;SDS011;5858;43.076;25.626;2023-06-14T19:25:25;4.88;;;3.53;;
11604;SDS011;5858;43.076;25.626;2023-06-14T19:29:05;4.90;;;3.83;;
11604;SDS011;5858;43.076;25.626;2023-06-14T19:35:06;4.50;;;3.95;;
11604;SDS011;5858;43.076;25.626;2023-06-14T19:37:55;5.95;;;3.80;;
11604;SDS011;5858;43.076;25.626;2023-06-14T19:40:50;5.47;;;4.70;;
11604;SDS011;5858;43.076;25.626;2023-06-14T19:43:28;8.40;;;4.50;;
11604;SDS011;5858;43.076;25.626;2023-06-14T19:46:16;10.15;;;4.65;;
11604;SDS011;5858;43.076;25.626;2023-06-14T19:49:00;8.15;;;4.90;;
11604;SDS011;5858;43.076;25.626;2023-06-14T19:54:15;8.90;;;4.18;;
11604;SDS011;5858;43.076;25.626;2023-06-14T19:56:46;9.38;;;4.47;;
11604;SDS011;5858;43.076;25.626;2023-06-14T19:59:25;7.65;;;4.20;;
11604;SDS011;5858;43.076;25.626;2023-06-14T20:02:01;8.75;;;5.10;;
11604;SDS011;5858;43.076;25.626;2023-06-14T20:04:46;6.40;;;4.88;;
11604;SDS011;5858;43.076;25.626;2023-06-14T20:07:23;9.63;;;6.13;;
11604;SDS011;5858;43.076;25.626;2023-06-14T20:10:04;6.78;;;5.50;;
11604;SDS011;5858;43.076;25.626;2023-06-14T20:12:43;7.72;;;6.38;;
11604;SDS011;5858;43.076;25.626;2023-06-14T20:15:14;11.90;;;8.27;;
11604;SDS011;5858;43.076;25.626;2023-06-14T20:17:42;10.98;;;9.10;;
11604;SDS011;5858;43.076;25.626;2023-06-14T20:20:16;14.18;;;10.50;;
11604;SDS011;5858;43.076;25.626;2023-06-14T20:22:47;13.23;;;10.70;;
11604;SDS011;5858;43.076;25.626;2023-06-14T20:25:23;21.25;;;13.35;;
11604;SDS011;5858;43.076;25.626;2023-06-14T20:28:06;20.08;;;14.48;;
11604;SDS011;5858;43.076;25.626;2023-06-14T20:33:20;25.27;;;15.73;;
11604;SDS011;5858;43.076;25.626;2023-06-14T20:35:47;26.67;;;16.30;;
11604;SDS011;5858;43.076;25.626;2023-06-14T20:38:15;23.92;;;17.00;;
11604;SDS011;5858;43.076;25.626;2023-06-14T20:40:47;21.70;;;16.05;;
11604;SDS011;5858;43.076;25.626;2023-06-14T20:43:17;20.45;;;15.13;;
11604;SDS011;5858;43.076;25.626;2023-06-14T20:45:46;21.95;;;15.73;;
11604;SDS011;5858;43.076;25.626;2023-06-14T20:48:14;19.23;;;14.05;;
11604;SDS011;5858;43.076;25.626;2023-06-14T20:50:41;15.85;;;11.80;;
11604;SDS011;5858;43.076;25.626;2023-06-14T20:53:11;13.00;;;10.15;;
11604;SDS011;5858;43.076;25.626;2023-06-14T20:55:43;12.10;;;8.93;;
11604;SDS011;5858;43.076;25.626;2023-06-14T20:58:13;12.65;;;10.93;;
11604;SDS011;5858;43.076;25.626;2023-06-14T21:00:42;20.10;;;12.75;;
11604;SDS011;5858;43.076;25.626;2023-06-14T21:03:10;18.80;;;15.00;;
11604;SDS011;5858;43.076;25.626;2023-06-14T21:05:37;20.25;;;15.20;;
11604;SDS011;5858;43.076;25.626;2023-06-14T21:08:11;14.95;;;13.15;;
11604;SDS011;5858;43.076;25.626;2023-06-14T21:10:42;15.90;;;12.55;;
11604;SDS011;5858;43.076;25.626;2023-06-14T21:13:10;16.80;;;12.38;;
11604;SDS011;5858;43.076;25.626;2023-06-14T21:15:39;13.05;;;11.85;;
11604;SDS011;5858;43.076;25.626;2023-06-14T21:18:06;13.35;;;11.10;;
11604;SDS011;5858;43.076;25.626;2023-06-14T21:20:35;13.98;;;11.50;;
11604;SDS011;5858;43.076;25.626;2023-06-14T21:23:03;14.50;;;12.55;;
11604;SDS011;5858;43.076;25.626;2023-06-14T21:25:31;14.75;;;13.25;;
11604;SDS011;5858;43.076;25.626;2023-06-14T21:27:58;17.20;;;13.18;;
11604;SDS011;5858;43.076;25.626;2023-06-14T21:30:34;15.55;;;11.70;;
11604;SDS011;5858;43.076;25.626;2023-06-14T21:33:03;14.15;;;11.60;;
11604;SDS011;5858;43.076;25.626;2023-06-14T21:35:31;17.98;;;10.73;;
11604;SDS011;5858;43.076;25.626;2023-06-14T21:37:59;12.27;;;8.52;;
11604;SDS011;5858;43.076;25.626;2023-06-14T21:40:27;7.32;;;6.63;;
11604;SDS011;5858;43.076;25.626;2023-06-14T21:42:54;8.30;;;7.30;;
11604;SDS011;5858;43.076;25.626;2023-06-14T21:45:22;8.90;;;7.53;;
11604;SDS011;5858;43.076;25.626;2023-06-14T21:47:55;9.48;;;8.48;;
11604;SDS011;5858;43.076;25.626;2023-06-14T21:50:24;7.60;;;6.10;;
11604;SDS011;5858;43.076;25.626;2023-06-14T21:52:59;6.93;;;6.30;;
11604;SDS011;5858;43.076;25.626;2023-06-14T21:55:27;6.75;;;6.15;;
11604;SDS011;5858;43.076;25.626;2023-06-14T21:57:54;9.15;;;6.95;;
11604;SDS011;5858;43.076;25.626;2023-06-14T22:00:22;6.80;;;6.20;;
11604;SDS011;5858;43.076;25.626;2023-06-14T22:02:50;6.80;;;6.05;;
11604;SDS011;5858;43.076;25.626;2023-06-14T22:05:19;6.03;;;5.32;;
11604;SDS011;5858;43.076;25.626;2023-06-14T22:07:47;6.35;;;5.75;;
11604;SDS011;5858;43.076;25.626;2023-06-14T22:10:15;7.13;;;5.50;;
11604;SDS011;5858;43.076;25.626;2023-06-14T22:12:44;9.43;;;5.90;;
11604;SDS011;5858;43.076;25.626;2023-06-14T22:15:14;6.47;;;5.47;;
11604;SDS011;5858;43.076;25.626;2023-06-14T22:17:42;5.93;;;5.35;;
11604;SDS011;5858;43.076;25.626;2023-06-14T22:20:10;6.97;;;5.57;;
11604;SDS011;5858;43.076;25.626;2023-06-14T22:22:40;4.95;;;4.40;;
11604;SDS011;5858;43.076;25.626;2023-06-14T22:25:10;5.63;;;5.00;;
11604;SDS011;5858;43.076;25.626;2023-06-14T22:30:39;6.15;;;5.22;;
11604;SDS011;5858;43.076;25.626;2023-06-14T22:33:09;5.60;;;5.05;;
11604;SDS011;5858;43.076;25.626;2023-06-14T22:35:36;6.75;;;5.28;;
11604;SDS011;5858;43.076;25.626;2023-06-14T22:38:05;5.75;;;5.25;;
11604;SDS011;5858;43.076;25.626;2023-06-14T22:40:33;5.55;;;5.00;;
11604;SDS011;5858;43.076;25.626;2023-06-14T22:43:01;7.43;;;5.00;;
11604;SDS011;5858;43.076;25.626;2023-06-14T22:45:30;5.13;;;4.70;;
11604;SDS011;5858;43.076;25.626;2023-06-14T22:47:57;5.70;;;4.78;;
11604;SDS011;5858;43.076;25.626;2023-06-14T22:50:24;5.35;;;4.85;;
11604;SDS011;5858;43.076;25.626;2023-06-14T22:52:52;6.28;;;4.45;;
11604;SDS011;5858;43.076;25.626;2023-06-14T22:55:20;7.97;;;5.10;;
11604;SDS011;5858;43.076;25.626;2023-06-14T22:57:51;6.25;;;4.50;;
11604;SDS011;5858;43.076;25.626;2023-06-14T23:00:18;6.35;;;4.60;;
11604;SDS011;5858;43.076;25.626;2023-06-14T23:02:46;8.00;;;5.47;;
11604;SDS011;5858;43.076;25.626;2023-06-14T23:05:13;4.97;;;4.43;;
11604;SDS011;5858;43.076;25.626;2023-06-14T23:07:42;7.55;;;4.75;;
11604;SDS011;5858;43.076;25.626;2023-06-14T23:10:11;5.40;;;4.90;;
11604;SDS011;5858;43.076;25.626;2023-06-14T23:12:44;6.07;;;4.90;;
11604;SDS011;5858;43.076;25.626;2023-06-14T23:15:20;4.55;;;4.15;;
11604;SDS011;5858;43.076;25.626;2023-06-14T23:17:48;5.60;;;4.70;;
11604;SDS011;5858;43.076;25.626;2023-06-14T23:20:17;5.68;;;4.63;;
11604;SDS011;5858;43.076;25.626;2023-06-14T23:22:45;5.47;;;4.97;;
11604;SDS011;5858;43.076;25.626;2023-06-14T23:25:15;5.85;;;5.25;;
11604;SDS011;5858;43.076;25.626;2023-06-14T23:27:46;5.40;;;4.40;;
11604;SDS011;5858;43.076;25.626;2023-06-14T23:30:16;7.05;;;5.13;;
11604;SDS011;5858;43.076;25.626;2023-06-14T23:32:45;4.93;;;4.53;;
11604;SDS011;5858;43.076;25.626;2023-06-14T23:35:18;6.03;;;4.88;;
11604;SDS011;5858;43.076;25.626;2023-06-14T23:37:48;5.40;;;4.78;;
11604;SDS011;5858;43.076;25.626;2023-06-14T23:40:26;7.50;;;4.75;;
11604;SDS011;5858;43.076;25.626;2023-06-14T23:42:56;6.63;;;5.55;;
11604;SDS011;5858;43.076;25.626;2023-06-14T23:45:27;7.50;;;5.22;;
11604;SDS011;5858;43.076;25.626;2023-06-14T23:47:57;6.55;;;5.95;;
11604;SDS011;5858;43.076;25.626;2023-06-14T23:50:25;5.13;;;4.63;;
11604;SDS011;5858;43.076;25.626;2023-06-14T23:52:52;5.65;;;5.15;;
11604;SDS011;5858;43.076;25.626;2023-06-14T23:55:24;6.22;;;5.63;;
11604;SDS011;5858;43.076;25.626;2023-06-14T23:57:56;7.03;;;5.30;;
